createdAt,value
2022-12-15T00:01:57.747Z,72
2022-12-15T00:05:22.994Z,72
2022-12-15T00:08:48.340Z,73
2022-12-15T00:12:13.647Z,73
2022-12-15T00:15:38.984Z,75
2022-12-15T00:19:04.244Z,74
2022-12-15T00:22:29.548Z,73
2022-12-15T00:25:54.810Z,70
2022-12-15T00:29:20.096Z,71
2022-12-15T00:32:45.342Z,73
2022-12-15T00:36:10.613Z,77
2022-12-15T00:39:35.929Z,81
2022-12-15T00:43:01.196Z,82
2022-12-15T00:46:26.537Z,81
2022-12-15T00:49:51.747Z,79
2022-12-15T00:53:17.047Z,77
2022-12-15T00:56:42.333Z,75
2022-12-15T01:00:07.694Z,74
2022-12-15T01:03:33.466Z,72
2022-12-15T01:06:58.290Z,71
2022-12-15T01:10:23.545Z,72
2022-12-15T01:13:49.556Z,73
2022-12-15T01:17:14.123Z,75
2022-12-15T01:20:39.389Z,75
2022-12-15T01:24:04.670Z,75
2022-12-15T01:27:29.952Z,77
2022-12-15T01:30:55.294Z,72
2022-12-15T01:34:20.497Z,74
2022-12-15T01:37:45.821Z,73
2022-12-15T01:41:11.096Z,74
2022-12-15T01:44:36.389Z,76
2022-12-15T01:48:01.659Z,75
2022-12-15T01:51:26.948Z,76
2022-12-15T01:54:52.333Z,77
2022-12-15T01:58:17.556Z,81
2022-12-15T02:01:42.875Z,80
2022-12-15T02:05:08.114Z,78
2022-12-15T02:08:33.391Z,76
2022-12-15T02:11:58.687Z,78
2022-12-15T02:15:23.911Z,80
2022-12-15T02:18:49.168Z,81
2022-12-15T02:22:14.435Z,81
2022-12-15T02:25:39.674Z,80
2022-12-15T02:29:04.971Z,80
2022-12-15T02:32:30.206Z,79
2022-12-15T02:35:55.486Z,79
2022-12-15T02:39:20.808Z,78
2022-12-15T02:42:46.122Z,78
2022-12-15T02:46:11.596Z,77
2022-12-15T02:49:36.694Z,76
2022-12-15T02:53:01.969Z,75
2022-12-15T02:56:27.240Z,76
2022-12-15T02:59:52.518Z,77
2022-12-15T03:03:17.877Z,78
2022-12-15T03:06:43.047Z,78
2022-12-15T03:10:08.340Z,77
2022-12-15T03:13:34.020Z,78
2022-12-15T03:16:59.051Z,78
2022-12-15T03:20:24.231Z,77
2022-12-15T03:23:49.575Z,76
2022-12-15T03:27:14.850Z,75
2022-12-15T03:30:40.147Z,75
2022-12-15T03:34:05.446Z,75
2022-12-15T03:37:30.737Z,74
2022-12-15T03:40:56.006Z,76
2022-12-15T03:44:21.304Z,77
2022-12-15T03:47:46.563Z,76
2022-12-15T03:51:11.824Z,75
2022-12-15T03:54:37.174Z,74
2022-12-15T03:58:02.417Z,71
2022-12-15T04:01:27.826Z,70
2022-12-15T04:04:52.950Z,73
2022-12-15T04:08:18.232Z,74
2022-12-15T04:11:43.525Z,75
2022-12-15T04:15:08.763Z,77
2022-12-15T04:18:34.059Z,78
2022-12-15T04:21:59.363Z,76
2022-12-15T04:25:24.656Z,76
2022-12-15T04:28:49.941Z,74
2022-12-15T04:32:15.269Z,73
2022-12-15T04:35:40.688Z,75
2022-12-15T04:39:08.217Z,75
2022-12-15T04:42:33.466Z,74
2022-12-15T04:45:58.803Z,75
2022-12-15T04:49:23.980Z,75
2022-12-15T04:52:49.363Z,75
2022-12-15T04:56:18.365Z,76
2022-12-15T04:59:40.287Z,78
2022-12-15T05:03:05.598Z,78
2022-12-15T05:06:30.835Z,79
2022-12-15T05:09:59.680Z,76
2022-12-15T05:13:21.373Z,76
2022-12-15T05:16:46.690Z,76
2022-12-15T05:20:12.007Z,75
2022-12-15T05:23:37.346Z,75
2022-12-15T05:27:02.612Z,77
2022-12-15T05:30:27.845Z,77
2022-12-15T05:33:53.108Z,75
2022-12-15T05:37:18.398Z,77
2022-12-15T05:40:43.648Z,79
2022-12-15T05:44:08.894Z,79
2022-12-15T05:47:34.187Z,77
2022-12-15T05:50:59.425Z,75
2022-12-15T05:54:24.671Z,76
2022-12-15T05:57:49.871Z,77
2022-12-15T06:01:15.094Z,78
2022-12-15T06:04:40.419Z,78
2022-12-15T06:08:05.650Z,78
2022-12-15T06:11:30.997Z,78
2022-12-15T06:14:56.140Z,75
2022-12-15T06:18:21.373Z,75
2022-12-15T06:21:46.587Z,75
2022-12-15T06:25:11.812Z,75
2022-12-15T06:28:37.094Z,75
2022-12-15T06:32:02.283Z,73
2022-12-15T06:35:27.501Z,77
2022-12-15T06:38:52.726Z,78
2022-12-15T06:42:17.961Z,76
2022-12-15T06:45:43.192Z,75
2022-12-15T06:49:08.383Z,75
2022-12-15T06:52:33.651Z,75
2022-12-15T06:55:58.876Z,72
2022-12-15T06:59:24.105Z,76
2022-12-15T07:02:49.886Z,76
2022-12-15T07:06:14.550Z,77
2022-12-15T07:09:39.768Z,74
2022-12-15T07:13:04.989Z,74
2022-12-15T07:16:30.213Z,77
2022-12-15T07:19:55.417Z,80
2022-12-15T07:23:29.576Z,81
2022-12-15T07:26:45.836Z,79
2022-12-15T07:30:11.040Z,78
2022-12-15T07:33:36.252Z,78
2022-12-15T07:37:01.525Z,79
2022-12-15T07:40:26.777Z,80
2022-12-15T07:43:51.961Z,80
2022-12-15T07:47:17.175Z,80
2022-12-15T07:50:42.388Z,80
2022-12-15T07:54:07.615Z,80
2022-12-15T07:57:32.854Z,79
2022-12-15T08:00:58.153Z,78
2022-12-15T08:04:23.334Z,77
2022-12-15T08:07:48.541Z,78
2022-12-15T08:11:13.765Z,78
2022-12-15T08:14:38.963Z,78
2022-12-15T08:18:04.181Z,79
2022-12-15T08:21:29.381Z,79
2022-12-15T08:24:54.587Z,77
2022-12-15T08:28:19.854Z,75
2022-12-15T08:31:45.107Z,74
2022-12-15T08:35:25.548Z,73
2022-12-15T08:38:35.586Z,75
2022-12-15T08:42:00.834Z,73
2022-12-15T08:45:26.105Z,76
2022-12-15T08:48:51.311Z,75
2022-12-15T08:52:16.546Z,72
2022-12-15T08:55:41.774Z,73
2022-12-15T08:59:07.010Z,76
2022-12-15T09:02:32.400Z,75
2022-12-15T09:05:57.493Z,74
2022-12-15T09:09:22.740Z,73
2022-12-15T09:12:47.950Z,73
2022-12-15T09:16:13.246Z,75
2022-12-15T09:19:38.417Z,75
2022-12-15T09:23:03.631Z,75
2022-12-15T09:26:28.844Z,76
2022-12-15T09:29:54.040Z,79
2022-12-15T09:33:19.275Z,79
2022-12-15T09:36:44.615Z,77
2022-12-15T09:40:09.727Z,76
2022-12-15T09:43:37.140Z,76
2022-12-15T09:47:00.181Z,76
2022-12-15T09:50:25.406Z,77
2022-12-15T09:53:55.327Z,77
2022-12-15T09:57:15.901Z,79
2022-12-15T10:00:44.416Z,81
2022-12-15T10:04:06.447Z,81
2022-12-15T10:07:31.657Z,80
2022-12-15T10:10:56.913Z,79
2022-12-15T10:14:22.086Z,79
2022-12-15T10:17:48.317Z,78
2022-12-15T10:21:12.538Z,77
2022-12-15T10:25:08.350Z,75
2022-12-15T10:28:03.037Z,73
2022-12-15T10:31:28.288Z,70
2022-12-15T10:34:53.534Z,71
2022-12-15T10:38:18.758Z,71
2022-12-15T10:41:44.036Z,68
2022-12-15T10:45:09.327Z,66
2022-12-15T10:48:34.545Z,64
2022-12-15T10:51:59.802Z,65
2022-12-15T10:55:25.059Z,63
2022-12-15T10:58:50.406Z,63
2022-12-15T11:02:21.287Z,62
2022-12-15T11:05:40.857Z,62
2022-12-15T11:09:06.126Z,61
2022-12-15T11:12:31.379Z,63
2022-12-15T11:15:56.626Z,60
2022-12-15T11:19:21.890Z,58
2022-12-15T11:22:47.102Z,60
2022-12-15T11:26:12.343Z,58
2022-12-15T11:29:37.607Z,58
2022-12-15T11:33:02.821Z,60
2022-12-15T11:36:28.128Z,59
2022-12-15T11:39:53.382Z,60
2022-12-15T11:43:18.702Z,64
2022-12-15T11:46:43.974Z,59
2022-12-15T11:50:09.304Z,56
2022-12-15T11:54:00.839Z,56
2022-12-15T11:57:26.108Z,52
2022-12-15T12:00:51.350Z,50
2022-12-15T12:04:16.590Z,50
2022-12-15T12:07:42.376Z,53
2022-12-15T12:11:07.214Z,54
2022-12-15T12:14:32.398Z,55
2022-12-15T12:17:57.658Z,55
2022-12-15T12:21:22.919Z,55
2022-12-15T12:24:48.943Z,54
2022-12-15T12:28:13.437Z,53
2022-12-15T12:31:50.892Z,55
2022-12-15T12:38:41.272Z,57
2022-12-15T12:42:06.536Z,59
2022-12-15T12:45:31.869Z,58
2022-12-15T12:48:57.049Z,58
2022-12-15T12:52:22.292Z,58
2022-12-15T12:55:47.540Z,60
2022-12-15T12:59:12.832Z,62
2022-12-15T13:02:38.271Z,62
2022-12-15T13:06:03.347Z,61
2022-12-15T13:09:28.600Z,62
2022-12-15T13:12:54.423Z,63
2022-12-15T13:16:19.438Z,64
2022-12-15T13:19:47.936Z,65
2022-12-15T13:23:10.065Z,63
2022-12-15T13:26:35.320Z,63
2022-12-15T13:30:00.536Z,66
2022-12-15T13:33:25.803Z,67
2022-12-15T13:36:54.972Z,66
2022-12-15T13:40:16.364Z,65
2022-12-15T13:43:41.665Z,64
2022-12-15T13:47:06.948Z,66
2022-12-15T13:50:32.240Z,63
2022-12-15T13:53:57.509Z,64
2022-12-15T13:57:22.830Z,68
2022-12-15T14:00:48.134Z,66
2022-12-15T14:04:13.404Z,68
2022-12-15T14:07:38.702Z,66
2022-12-15T14:11:16.774Z,69
2022-12-15T14:14:29.547Z,68
2022-12-15T14:17:55.608Z,69
2022-12-15T14:21:20.887Z,69
2022-12-15T14:24:46.146Z,68
2022-12-15T14:28:12.282Z,66
2022-12-15T14:31:36.772Z,67
2022-12-15T15:03:08.778Z,54
2022-12-15T15:06:04.128Z,69
2022-12-15T15:09:29.360Z,70
2022-12-15T15:12:54.729Z,68
2022-12-15T15:16:20.066Z,65
2022-12-15T15:19:45.310Z,65
2022-12-15T15:23:10.623Z,68
2022-12-15T15:26:35.924Z,70
2022-12-15T15:30:02.461Z,69
2022-12-15T15:33:28.475Z,67
2022-12-15T15:36:54.389Z,69
2022-12-15T15:40:19.709Z,71
2022-12-15T15:43:44.947Z,68
2022-12-15T15:47:10.227Z,69
2022-12-15T15:50:35.514Z,70
2022-12-15T15:54:00.804Z,69
2022-12-15T15:57:26.203Z,68
2022-12-15T16:00:51.673Z,70
2022-12-15T16:04:17.027Z,70
2022-12-15T16:07:42.454Z,71
2022-12-15T16:11:07.861Z,69
2022-12-15T16:14:33.523Z,71
2022-12-15T16:17:58.834Z,70
2022-12-15T16:21:24.192Z,68
2022-12-15T16:24:49.507Z,66
2022-12-15T16:28:14.846Z,68
2022-12-15T16:31:41.874Z,71
2022-12-15T16:35:05.547Z,73
2022-12-15T16:38:31.315Z,73
2022-12-15T16:41:56.244Z,73
2022-12-15T16:45:21.538Z,73
2022-12-15T16:48:46.932Z,72
2022-12-15T16:52:12.273Z,73
2022-12-15T16:55:40.008Z,74
2022-12-15T16:59:31.210Z,74
2022-12-15T17:02:28.724Z,74
2022-12-15T17:05:53.711Z,73
2022-12-15T17:09:18.945Z,70
2022-12-15T17:12:44.277Z,69
2022-12-15T17:16:09.649Z,71
2022-12-15T17:19:34.950Z,72
2022-12-15T17:23:00.332Z,73
2022-12-15T17:26:29.390Z,74
2022-12-15T17:29:51.053Z,75
2022-12-15T17:33:16.528Z,75
2022-12-15T17:36:41.882Z,75
2022-12-15T17:40:08.517Z,75
2022-12-15T17:43:36.065Z,75
2022-12-15T17:46:59.526Z,74
2022-12-15T17:50:24.835Z,73
2022-12-15T17:53:52.586Z,74
2022-12-15T17:57:17.982Z,74
2022-12-15T18:00:49.002Z,74
2022-12-15T18:04:08.755Z,75
2022-12-15T18:07:34.013Z,75
2022-12-15T18:10:59.309Z,75
2022-12-15T18:14:24.643Z,75
2022-12-15T18:17:49.937Z,75
2022-12-15T18:21:15.206Z,75
2022-12-15T18:24:40.578Z,74
2022-12-15T18:28:06.027Z,75
2022-12-15T18:31:31.349Z,74
2022-12-15T18:34:56.640Z,75
2022-12-15T18:38:21.976Z,72
2022-12-15T18:41:47.310Z,73
2022-12-15T18:45:12.579Z,75
2022-12-15T18:48:37.891Z,75
2022-12-15T18:52:03.138Z,74
2022-12-15T18:55:28.450Z,72
2022-12-15T18:58:53.702Z,72
2022-12-15T19:02:19.145Z,72
2022-12-15T19:05:44.361Z,73
2022-12-15T19:09:09.700Z,73
2022-12-15T19:12:34.941Z,71
2022-12-15T19:16:00.408Z,72
2022-12-15T19:19:25.646Z,69
2022-12-15T19:22:50.992Z,70
2022-12-15T19:26:16.226Z,70
2022-12-15T19:29:41.549Z,70
2022-12-15T19:33:06.925Z,69
2022-12-15T19:36:36.498Z,64
2022-12-15T19:39:57.584Z,63
2022-12-15T19:43:22.823Z,67
2022-12-15T19:46:48.063Z,70
2022-12-15T19:50:13.389Z,70
2022-12-15T19:53:38.688Z,66
2022-12-15T19:57:04.069Z,61
2022-12-15T20:00:29.299Z,59
2022-12-15T20:03:54.642Z,62
2022-12-15T20:07:19.909Z,64
2022-12-15T20:10:45.227Z,59
2022-12-15T20:14:10.687Z,59
2022-12-15T20:17:35.847Z,59
2022-12-15T20:21:01.110Z,59
2022-12-15T20:24:26.493Z,60
2022-12-15T20:27:51.835Z,61
2022-12-15T20:31:17.157Z,61
2022-12-15T20:34:42.440Z,61
2022-12-15T20:38:07.794Z,62
2022-12-15T20:41:33.052Z,63
2022-12-15T20:44:58.411Z,63
2022-12-15T20:48:23.750Z,64
2022-12-15T20:51:49.022Z,64
2022-12-15T20:55:14.279Z,65
2022-12-15T20:58:46.279Z,66
2022-12-15T21:02:11.772Z,66
2022-12-15T21:05:36.863Z,65
2022-12-15T21:09:02.106Z,66
2022-12-15T21:12:27.361Z,66
2022-12-15T21:15:52.636Z,66
2022-12-15T21:19:20.674Z,67
2022-12-15T21:22:43.153Z,68
2022-12-15T21:26:08.392Z,68
2022-12-15T21:29:33.649Z,70
2022-12-15T21:32:58.918Z,70
2022-12-15T21:36:24.170Z,70
2022-12-15T21:39:49.489Z,70
2022-12-15T21:43:14.700Z,70
2022-12-15T21:46:40.050Z,69
2022-12-15T21:50:05.253Z,68
2022-12-15T21:53:30.546Z,68
2022-12-15T21:56:55.825Z,68
2022-12-15T22:00:21.079Z,68
2022-12-15T22:03:46.344Z,69
2022-12-15T22:07:11.612Z,68
2022-12-15T22:10:36.872Z,69
2022-12-15T22:14:02.186Z,69
2022-12-15T22:17:27.420Z,69
2022-12-15T22:20:52.679Z,70
2022-12-15T22:24:17.951Z,69
2022-12-15T22:27:43.220Z,69
2022-12-15T22:31:08.546Z,69
2022-12-15T22:34:33.731Z,69
2022-12-15T22:37:59.009Z,69
2022-12-15T22:41:24.261Z,69
2022-12-15T22:44:49.546Z,68
2022-12-15T22:48:14.925Z,69
2022-12-15T22:51:40.071Z,70
2022-12-15T22:55:05.338Z,69
2022-12-15T22:58:30.968Z,70
2022-12-15T23:01:56.041Z,70
2022-12-15T23:05:21.201Z,70
2022-12-15T23:08:46.957Z,70
2022-12-15T23:12:11.754Z,70
2022-12-15T23:15:37.052Z,71
2022-12-15T23:19:02.300Z,71
2022-12-15T23:22:27.623Z,71
2022-12-15T23:25:52.839Z,71
2022-12-15T23:29:18.098Z,71
2022-12-15T23:32:43.374Z,71
2022-12-15T23:36:08.650Z,71
2022-12-15T23:39:33.944Z,71
2022-12-15T23:42:59.198Z,71
2022-12-15T23:46:24.476Z,71
2022-12-15T23:49:49.803Z,72
2022-12-15T23:53:15.070Z,72
2022-12-15T23:56:40.375Z,72
